»·PEaware :: DCM206 KSNA-KLAS

DCM206 :: KSNA-KLAS

FLIGHT INFORMATION

Flight Status: Arrived
Operator:
DotCom
More flights by this operator :: More flights under this callsign
Pilot: Nick L. (7253)
Aircraft: BOEING 737-800
(B738)
More flights by this aircraft type
Origin: KSNA John Wayne-Orange Co
United States
Destination: KLAS Harry Reid Intl
United States
More flights between these airports :: More routes between these airports
Route: FINZZ3 MISEN RNDRZ1
File this flight plan on PilotEdge
Remarks: RMK / SIMBRIEF
Altitude:
(Current/Filed)
31,000ft
Speed:
(Current/Filed)
454kts
Departed: 25-Feb-21 07:03 PM
Arrived: 25-Feb-21 07:49 PM
Distance/Time
Traveled:
196nm/0:46
Distance/Time
To Go:
Arrived

Flight Plot

Page will automatically refresh every two minutes.

Flight plan parsing failed; only flown route is shown


Map Options




Map Legend


Flown Route
Filed Route
Departure Airport
Arrival Airport
Navaid (VOR, NDB)
Fix

Horizontal Profiles

Position Reports

Time Latitude Longitude Heading Altitude Ground
Speed
25-Feb-21 18:45 33.672446 -117.866851 210 66ft 0kts
25-Feb-21 18:46 33.672446 -117.866851 210 65ft 0kts
25-Feb-21 18:47 33.672446 -117.866851 210 65ft 0kts
25-Feb-21 18:48 33.672446 -117.866851 210 65ft 0kts
25-Feb-21 18:49 33.672446 -117.866851 210 65ft 0kts
25-Feb-21 18:50 33.672446 -117.866851 210 65ft 0kts
25-Feb-21 18:51 33.672446 -117.866851 210 65ft 0kts
25-Feb-21 18:52 33.672446 -117.866851 210 65ft 0kts
25-Feb-21 18:53 33.672446 -117.866851 210 65ft 0kts
25-Feb-21 18:54 33.672446 -117.866851 210 65ft 0kts
25-Feb-21 18:55 33.672446 -117.866851 210 65ft 0kts
25-Feb-21 18:56 33.672446 -117.866851 210 65ft 0kts
25-Feb-21 18:57 33.672433 -117.866860 210 65ft 0kts
25-Feb-21 18:58 33.672432 -117.867074 305 65ft 0kts
25-Feb-21 18:59 33.674048 -117.866519 27 65ft 15kts
25-Feb-21 19:00 33.677965 -117.864040 27 65ft 16kts
25-Feb-21 19:01 33.680953 -117.863766 299 65ft 10kts
25-Feb-21 19:02 33.674111 -117.869851 207 66ft 125kts
25-Feb-21 19:03 33.635742 -117.890606 193 1659ft 190kts
25-Feb-21 19:04 33.573251 -117.904250 207 4275ft 257kts
25-Feb-21 19:05 33.517462 -117.960272 230 7902ft 275kts
25-Feb-21 19:06 33.512302 -118.044719 306 10615ft 301kts
25-Feb-21 19:07 33.588162 -118.103955 348 12717ft 352kts
25-Feb-21 19:08 33.684726 -118.074662 22 15533ft 378kts
25-Feb-21 19:09 33.780634 -118.018413 22 18046ft 393kts
25-Feb-21 19:10 33.880418 -117.959161 27 20289ft 410kts
25-Feb-21 19:11 33.975540 -117.879727 32 22490ft 422kts
25-Feb-21 19:12 34.069583 -117.790814 40 24130ft 438kts
25-Feb-21 19:13 34.152660 -117.680029 45 25816ft 453kts
25-Feb-21 19:14 34.234258 -117.561603 46 27318ft 467kts
25-Feb-21 19:15 34.313534 -117.444252 46 27840ft 448kts
25-Feb-21 19:16 34.392115 -117.326746 47 29622ft 450kts
25-Feb-21 19:17 34.470668 -117.209047 47 31163ft 451kts
25-Feb-21 19:18 34.548592 -117.091987 47 31177ft 445kts
25-Feb-21 19:19 34.628554 -116.975400 46 31182ft 453kts
25-Feb-21 19:20 34.709424 -116.857474 47 31183ft 457kts
25-Feb-21 19:21 34.790172 -116.739338 47 30832ft 455kts
25-Feb-21 19:22 34.875388 -116.627534 38 28602ft 450kts
25-Feb-21 19:23 34.971489 -116.531680 33 26572ft 447kts
25-Feb-21 19:24 35.067428 -116.438140 31 24566ft 432kts
25-Feb-21 19:25 35.153077 -116.336942 39 24181ft 423kts
25-Feb-21 19:26 35.233258 -116.234188 40 24192ft 420kts
25-Feb-21 19:27 35.310921 -116.127975 41 24192ft 419kts
25-Feb-21 19:28 35.388171 -116.021729 41 24192ft 419kts
25-Feb-21 19:29 35.464758 -115.916227 41 22226ft 419kts
25-Feb-21 19:30 35.540209 -115.811930 41 19757ft 383kts
25-Feb-21 19:31 35.601532 -115.726711 39 19181ft 319kts
25-Feb-21 19:32 35.662351 -115.645023 39 19179ft 323kts
25-Feb-21 19:34 35.721465 -115.566054 34 17785ft 310kts
25-Feb-21 19:35 35.791844 -115.511060 22 16213ft 294kts
25-Feb-21 19:36 35.861511 -115.462408 23 14797ft 284kts
25-Feb-21 19:37 35.928983 -115.415093 23 13415ft 274kts
25-Feb-21 19:38 35.993170 -115.368075 35 12057ft 271kts
25-Feb-21 19:39 36.012892 -115.276183 89 10499ft 300kts
25-Feb-21 19:40 36.006304 -115.177543 87 9631ft 271kts
25-Feb-21 19:41 36.001265 -115.089931 88 8978ft 246kts
25-Feb-21 19:42 35.999096 -115.006663 85 7994ft 230kts
25-Feb-21 19:43 36.000859 -114.937040 67 6850ft 199kts
25-Feb-21 19:44 36.043840 -114.906508 349 5187ft 181kts
25-Feb-21 19:45 36.073588 -114.953055 276 4769ft 195kts
25-Feb-21 19:46 36.073754 -115.017284 272 3781ft 182kts
25-Feb-21 19:47 36.073699 -115.072319 271 2914ft 159kts
25-Feb-21 19:48 36.073724 -115.126852 271 2236ft 159kts
25-Feb-21 19:49 36.073968 -115.153233 287 2188ft 22kts
25-Feb-21 19:50 36.074889 -115.155513 298 2188ft 0kts
25-Feb-21 19:51 36.075017 -115.161270 270 2188ft 22kts
25-Feb-21 19:52 36.073884 -115.166114 291 2188ft 0kts
25-Feb-21 19:53 36.073884 -115.166113 291 2188ft 0kts
25-Feb-21 19:54 36.073884 -115.166114 291 2188ft 0kts
25-Feb-21 19:54 36.075363 -115.170014 299 2188ft 22kts
25-Feb-21 19:56 36.081441 -115.170174 263 2188ft 18kts

Navigation Log

Ident Type
Flight plan parsing failed, navigation log unavailable